Time;durP1;ratioP1;P1;durP2;ratioP2;P2;SDS_P1;SDS_P2;PMS_P1;PMS_P2;Temp;Humidity;BMP_temperature;BMP_pressure;BME280_temperature;BME280_humidity;BME280_pressure;Samples;Min_cycle;Max_cycle;Signal;HPM_P1;HPM_P2
2023/12/21 00:00:05;;;;;;;3.10;3.00;;;6.20;1.00;;;;;;5044672;28;20480;-80
2023/12/21 00:02:33;;;;;;;3.00;2.90;;;6.20;1.00;;;;;;5048068;28;20458;-81
2023/12/21 00:05:01;;;;;;;2.83;2.73;;;6.20;1.00;;;;;;5050145;28;20475;-79
2023/12/21 00:07:29;;;;;;;2.87;2.77;;;6.20;1.00;;;;;;5052264;28;21163;-79
2023/12/21 00:09:58;;;;;;;2.90;2.80;;;6.20;1.00;;;;;;5044352;28;21115;-80
2023/12/21 00:12:26;;;;;;;2.60;2.50;;;6.20;1.00;;;;;;5052847;28;20452;-80
2023/12/21 00:14:56;;;;;;;2.93;2.83;;;6.20;1.00;;;;;;5052423;28;20471;-79
2023/12/21 00:17:24;;;;;;;2.80;2.80;;;6.20;1.00;;;;;;5050996;28;20884;-80
2023/12/21 00:19:52;;;;;;;2.80;2.70;;;6.10;99.90;;;;;;5046933;28;20472;-80
2023/12/21 00:22:24;;;;;;;3.00;2.93;;;6.10;1.00;;;;;;5049834;28;21458;-78
2023/12/21 00:24:53;;;;;;;2.90;2.70;;;6.10;1.00;;;;;;5052620;28;20479;-79
2023/12/21 00:27:21;;;;;;;3.10;3.00;;;6.10;1.00;;;;;;5049852;28;20456;-80
2023/12/21 00:29:49;;;;;;;3.80;3.70;;;6.10;1.00;;;;;;5053588;28;20448;-80
2023/12/21 00:32:19;;;;;;;2.60;2.60;;;6.10;1.00;;;;;;5055314;28;20489;-79
2023/12/21 00:34:49;;;;;;;2.80;2.80;;;6.10;1.00;;;;;;5054401;28;20471;-78
2023/12/21 00:37:20;;;;;;;3.07;2.97;;;6.20;38.50;;;;;;5049589;28;20467;-78
2023/12/21 00:39:48;;;;;;;3.00;3.00;;;6.20;1.00;;;;;;5053997;28;20486;-78
2023/12/21 00:42:16;;;;;;;2.70;2.70;;;6.20;1.00;;;;;;5047762;28;20957;-78
2023/12/21 00:44:46;;;;;;;2.63;2.63;;;6.10;1.00;;;;;;5048762;28;20575;-79
2023/12/21 00:47:14;;;;;;;2.80;2.70;;;6.10;1.00;;;;;;5051959;28;20496;-78
2023/12/21 00:49:43;;;;;;;2.70;2.63;;;6.20;99.90;;;;;;5046654;28;20584;-78
2023/12/21 00:52:12;;;;;;;2.87;2.77;;;6.10;39.30;;;;;;5049676;28;20535;-79
2023/12/21 00:54:40;;;;;;;2.90;2.80;;;6.20;1.00;;;;;;5052183;28;20445;-78
2023/12/21 00:57:09;;;;;;;2.70;2.70;;;6.20;99.90;;;;;;5043005;28;20205;-78
2023/12/21 00:59:38;;;;;;;3.00;2.90;;;6.30;1.00;;;;;;5045409;28;20595;-79
2023/12/21 01:02:07;;;;;;;2.77;2.77;;;6.40;78.00;;;;;;5045004;28;20498;-79
2023/12/21 01:04:35;;;;;;;2.87;2.80;;;6.40;62.10;;;;;;5050404;28;20474;-81
2023/12/21 01:07:05;;;;;;;2.77;2.70;;;6.30;1.00;;;;;;5050009;28;20816;-80
2023/12/21 01:09:34;;;;;;;3.20;3.10;;;6.30;99.90;;;;;;5054261;28;20877;-81
2023/12/21 01:12:02;;;;;;;3.23;3.03;;;6.30;99.90;;;;;;5048710;28;20448;-80
2023/12/21 01:14:31;;;;;;;3.30;3.20;;;6.30;99.90;;;;;;5049023;28;20477;-77
2023/12/21 01:16:59;;;;;;;3.27;3.17;;;6.30;99.90;;;;;;5045118;28;20522;-80
2023/12/21 01:19:27;;;;;;;2.80;2.80;;;6.40;99.90;;;;;;5051017;28;21001;-78
2023/12/21 01:21:56;;;;;;;3.17;3.07;;;6.40;99.90;;;;;;5047962;28;20450;-80
2023/12/21 01:24:25;;;;;;;3.00;2.90;;;6.30;99.90;;;;;;5050433;28;21008;-81
2023/12/21 01:26:53;;;;;;;3.00;2.90;;;6.30;99.90;;;;;;5046503;28;20537;-81
2023/12/21 01:29:22;;;;;;;3.20;3.10;;;6.30;99.90;;;;;;5050166;28;20533;-78
2023/12/21 01:31:51;;;;;;;3.00;3.00;;;6.20;99.90;;;;;;5051193;28;20562;-79
2023/12/21 01:34:20;;;;;;;2.93;2.87;;;6.30;99.90;;;;;;5055264;28;20536;-79
2023/12/21 01:36:48;;;;;;;3.27;3.17;;;6.20;99.90;;;;;;5052568;28;20463;-82
2023/12/21 01:39:16;;;;;;;3.20;3.10;;;6.30;99.90;;;;;;5055849;28;20484;-79
2023/12/21 01:41:49;;;;;;;3.40;3.30;;;6.30;99.90;;;;;;5057177;28;20442;-78
2023/12/21 01:44:19;;;;;;;3.00;3.00;;;6.30;99.90;;;;;;5053621;28;20475;-78
2023/12/21 01:46:47;;;;;;;3.03;2.93;;;6.30;1.00;;;;;;5053511;28;20462;-80
2023/12/21 01:49:16;;;;;;;3.40;3.30;;;6.30;99.90;;;;;;5056831;28;20455;-79
2023/12/21 01:51:44;;;;;;;3.17;3.07;;;6.40;43.10;;;;;;5056464;28;20454;-78
2023/12/21 01:54:13;;;;;;;3.13;3.13;;;6.30;38.30;;;;;;5044173;28;20489;-79
2023/12/21 01:56:41;;;;;;;2.97;2.97;;;6.40;95.20;;;;;;5054064;28;20483;-80
2023/12/21 01:59:10;;;;;;;3.10;3.00;;;6.30;1.00;;;;;;5057203;28;20444;-79
2023/12/21 02:01:39;;;;;;;2.90;2.90;;;6.40;1.00;;;;;;5055928;28;20974;-79
2023/12/21 02:04:09;;;;;;;3.00;3.00;;;6.40;92.90;;;;;;5055818;28;20472;-79
2023/12/21 02:06:38;;;;;;;3.20;3.10;;;6.30;99.90;;;;;;5050856;28;20456;-78
2023/12/21 02:09:07;;;;;;;3.40;3.30;;;6.40;99.90;;;;;;5052468;28;20979;-79
2023/12/21 02:11:35;;;;;;;3.20;3.10;;;6.40;99.90;;;;;;5052025;28;20448;-80
2023/12/21 02:14:04;;;;;;;3.10;3.10;;;6.40;99.90;;;;;;5053861;28;20469;-79
2023/12/21 02:16:37;;;;;;;3.30;3.20;;;6.30;99.90;;;;;;5050991;28;20540;-79
2023/12/21 02:19:06;;;;;;;3.33;3.23;;;6.30;99.90;;;;;;5053727;28;20520;-79
2023/12/21 02:21:36;;;;;;;3.07;2.97;;;6.30;99.90;;;;;;5049436;28;20502;-79
2023/12/21 02:24:12;;;;;;;2.90;2.90;;;6.20;99.90;;;;;;5048858;28;20470;-80
2023/12/21 02:26:40;;;;;;;3.13;3.10;;;6.20;99.90;;;;;;5054030;28;20465;-79
2023/12/21 02:29:08;;;;;;;3.13;3.13;;;6.20;99.90;;;;;;5056726;28;21040;-80
2023/12/21 02:31:36;;;;;;;3.20;3.10;;;6.20;1.00;;;;;;5056221;28;20538;-80
2023/12/21 02:34:06;;;;;;;3.30;3.20;;;6.20;1.00;;;;;;5049640;28;20814;-80
2023/12/21 02:36:35;;;;;;;3.07;3.07;;;6.30;43.10;;;;;;5055250;28;20593;-79
2023/12/21 02:39:03;;;;;;;3.30;3.20;;;6.20;99.90;;;;;;5057307;28;20455;-80
2023/12/21 02:41:33;;;;;;;2.90;2.90;;;6.30;1.00;;;;;;5058181;28;20472;-79
2023/12/21 02:44:01;;;;;;;2.80;2.70;;;6.30;1.00;;;;;;5052403;28;20466;-79
2023/12/21 02:46:29;;;;;;;2.97;2.97;;;6.30;1.00;;;;;;5050407;28;20465;-80
2023/12/21 02:48:57;;;;;;;3.70;3.60;;;6.30;99.90;;;;;;5051602;28;20456;-79
2023/12/21 02:51:25;;;;;;;3.40;3.30;;;6.30;78.20;;;;;;5050210;28;20460;-80
2023/12/21 02:53:54;;;;;;;3.30;3.30;;;6.30;1.00;;;;;;5053456;28;20478;-81
2023/12/21 02:56:22;;;;;;;3.53;3.43;;;6.40;1.00;;;;;;5047893;28;20464;-78
2023/12/21 02:58:51;;;;;;;3.40;3.40;;;6.30;99.90;;;;;;5051580;28;20459;-81
2023/12/21 03:01:19;;;;;;;3.27;3.17;;;6.30;1.00;;;;;;5048615;28;21075;-80
2023/12/21 03:03:48;;;;;;;2.90;2.90;;;6.40;99.90;;;;;;5055162;28;20563;-80
2023/12/21 03:06:16;;;;;;;3.30;3.30;;;6.40;99.90;;;;;;5049824;28;20839;-77
2023/12/21 03:08:44;;;;;;;3.13;3.10;;;6.40;1.00;;;;;;5055104;28;20530;-80
2023/12/21 03:11:13;;;;;;;3.50;3.40;;;6.40;1.00;;;;;;5052594;28;20439;-78
2023/12/21 03:13:41;;;;;;;3.20;3.20;;;6.40;35.10;;;;;;5055263;28;20467;-80
2023/12/21 03:16:12;;;;;;;3.30;3.20;;;6.40;1.00;;;;;;5049279;28;21168;-79
2023/12/21 03:18:40;;;;;;;3.30;3.20;;;6.50;1.00;;;;;;5050672;28;20447;-77
2023/12/21 03:21:10;;;;;;;3.10;3.10;;;6.50;1.00;;;;;;5049733;28;20475;-78
2023/12/21 03:23:40;;;;;;;3.27;3.17;;;6.50;99.90;;;;;;5051890;28;20476;-78
2023/12/21 03:26:09;;;;;;;3.07;3.07;;;6.40;1.00;;;;;;5045231;28;20456;-79
2023/12/21 03:28:37;;;;;;;3.10;3.10;;;6.40;1.00;;;;;;5048587;28;20440;-80
2023/12/21 03:31:08;;;;;;;3.43;3.37;;;6.40;1.00;;;;;;5052807;28;21014;-77
2023/12/21 03:33:38;;;;;;;3.27;3.27;;;6.50;1.00;;;;;;5051716;28;20483;-79
2023/12/21 03:36:07;;;;;;;3.80;3.70;;;6.40;99.90;;;;;;5050619;28;20477;-79
2023/12/21 03:38:35;;;;;;;3.40;3.30;;;6.40;1.00;;;;;;5052583;28;20452;-80
2023/12/21 03:41:04;;;;;;;3.70;3.60;;;6.40;99.90;;;;;;5051114;28;20472;-77
2023/12/21 03:43:32;;;;;;;3.60;3.50;;;6.40;1.00;;;;;;5066055;28;20590;-77
2023/12/21 03:46:00;;;;;;;3.70;3.60;;;6.40;99.90;;;;;;5049107;28;20458;-80
2023/12/21 03:48:28;;;;;;;3.90;3.80;;;6.40;1.60;;;;;;5044871;28;20459;-80
2023/12/21 03:50:58;;;;;;;3.70;3.60;;;6.40;1.00;;;;;;5048799;28;20491;-79
2023/12/21 03:53:26;;;;;;;3.20;3.20;;;6.40;99.90;;;;;;5052745;28;20472;-79
2023/12/21 03:55:54;;;;;;;3.53;3.43;;;6.50;99.90;;;;;;5049682;28;20464;-80
2023/12/21 03:58:22;;;;;;;3.80;3.70;;;6.50;99.90;;;;;;5051278;28;20439;-78
2023/12/21 04:00:51;;;;;;;3.77;3.67;;;6.50;1.00;;;;;;5045824;28;22140;-81
2023/12/21 04:03:19;;;;;;;4.60;4.50;;;6.50;1.00;;;;;;5047618;28;20471;-79
2023/12/21 04:05:47;;;;;;;4.20;4.10;;;6.50;1.00;;;;;;5048613;28;20448;-79
2023/12/21 04:08:21;;;;;;;4.83;4.63;;;6.50;1.00;;;;;;5048461;28;20460;-78
2023/12/21 04:10:49;;;;;;;4.10;4.00;;;6.50;1.00;;;;;;5049754;28;20460;-79
2023/12/21 04:13:17;;;;;;;4.00;3.90;;;6.50;1.00;;;;;;5049062;28;20479;-78
2023/12/21 04:15:46;;;;;;;4.50;4.40;;;6.40;99.90;;;;;;5049261;28;20506;-78
2023/12/21 04:18:14;;;;;;;4.40;4.30;;;6.40;1.00;;;;;;5047578;28;20455;-78
2023/12/21 04:20:45;;;;;;;4.40;4.30;;;6.50;1.00;;;;;;5046171;28;20633;-79
2023/12/21 04:23:14;;;;;;;4.40;4.30;;;6.50;1.00;;;;;;5050357;28;20457;-78
2023/12/21 04:25:44;;;;;;;4.70;4.60;;;6.50;1.00;;;;;;5048744;28;20459;-78
2023/12/21 04:28:12;;;;;;;3.70;3.70;;;6.40;99.90;;;;;;5048056;28;20484;-79
2023/12/21 04:30:40;;;;;;;4.50;4.40;;;6.40;99.90;;;;;;5047261;28;20444;-78
2023/12/21 04:33:11;;;;;;;3.90;3.80;;;6.50;1.00;;;;;;5047770;28;20531;-79
2023/12/21 04:35:39;;;;;;;4.40;4.30;;;6.40;99.90;;;;;;5050548;28;20456;-78
2023/12/21 04:38:07;;;;;;;4.40;4.30;;;6.40;99.90;;;;;;5047076;28;20457;-77
2023/12/21 04:40:36;;;;;;;4.20;4.10;;;6.50;99.90;;;;;;5052100;28;20465;-77
2023/12/21 04:43:07;;;;;;;4.50;4.40;;;6.40;1.00;;;;;;5046825;28;20541;-78
2023/12/21 04:45:35;;;;;;;4.70;4.40;;;6.40;1.00;;;;;;5043737;28;20451;-78
2023/12/21 04:48:04;;;;;;;4.50;4.40;;;6.40;1.00;;;;;;5048419;28;20459;-78
2023/12/21 04:50:32;;;;;;;4.70;4.60;;;6.50;1.00;;;;;;5050496;28;20439;-80
2023/12/21 04:53:01;;;;;;;5.65;5.55;;;6.40;99.90;;;;;;5049342;28;20483;-80
2023/12/21 04:55:29;;;;;;;5.20;5.10;;;6.40;99.90;;;;;;5047817;28;20197;-79
2023/12/21 04:57:57;;;;;;;5.30;5.20;;;6.50;99.90;;;;;;5046819;28;20466;-79
2023/12/21 05:00:29;;;;;;;5.40;5.30;;;6.50;99.90;;;;;;5045360;28;20495;-79
2023/12/21 05:02:57;;;;;;;5.33;5.23;;;6.50;99.90;;;;;;5045399;28;20480;-79
2023/12/21 05:05:25;;;;;;;5.00;4.90;;;6.60;87.80;;;;;;5045770;28;20461;-79
2023/12/21 05:07:55;;;;;;;5.10;5.00;;;6.50;1.00;;;;;;5049195;28;20448;-78
2023/12/21 05:10:24;;;;;;;5.00;4.90;;;6.50;99.90;;;;;;5048626;28;20436;-79
2023/12/21 05:12:52;;;;;;;4.90;4.80;;;6.50;83.20;;;;;;5046884;28;20527;-79
2023/12/21 05:15:20;;;;;;;5.20;5.00;;;6.50;99.90;;;;;;5049746;28;20476;-81
2023/12/21 05:17:50;;;;;;;5.17;5.07;;;6.50;1.00;;;;;;5046855;28;20521;-80
2023/12/21 05:20:18;;;;;;;4.80;4.70;;;6.50;1.00;;;;;;5048832;28;20456;-81
2023/12/21 05:22:46;;;;;;;5.10;5.00;;;6.60;99.90;;;;;;5044783;28;20479;-81
2023/12/21 05:25:17;;;;;;;5.47;5.30;;;6.70;1.00;;;;;;5050699;28;20494;-80
2023/12/21 05:27:45;;;;;;;5.30;5.20;;;6.60;1.00;;;;;;5048160;28;20961;-79
2023/12/21 05:30:13;;;;;;;5.10;5.00;;;6.60;88.70;;;;;;5049476;28;20451;-80
2023/12/21 05:32:42;;;;;;;5.33;5.03;;;6.60;99.90;;;;;;5050629;28;20487;-79
2023/12/21 05:35:12;;;;;;;5.60;5.50;;;6.60;1.00;;;;;;5052217;28;20479;-80
2023/12/21 05:37:41;;;;;;;5.20;5.10;;;6.60;1.00;;;;;;5045306;28;20929;-79
2023/12/21 05:40:10;;;;;;;5.20;5.10;;;6.60;1.00;;;;;;5046807;28;21294;-79
2023/12/21 05:42:38;;;;;;;5.40;5.20;;;6.70;1.00;;;;;;5052407;28;20472;-79
2023/12/21 05:45:08;;;;;;;5.50;5.40;;;6.60;1.00;;;;;;5047376;28;20558;-79
2023/12/21 05:47:36;;;;;;;5.43;5.33;;;6.60;99.90;;;;;;5053689;28;20538;-80
2023/12/21 05:50:05;;;;;;;5.50;5.40;;;6.70;99.90;;;;;;5052247;28;20457;-79
2023/12/21 05:52:34;;;;;;;5.50;5.40;;;6.60;1.00;;;;;;5045350;28;20447;-80
2023/12/21 05:55:03;;;;;;;5.63;5.53;;;6.60;1.00;;;;;;5049529;28;20467;-79
2023/12/21 05:57:31;;;;;;;5.53;5.43;;;6.60;1.00;;;;;;5048673;28;20459;-79
2023/12/21 05:59:59;;;;;;;5.50;5.40;;;6.60;1.00;;;;;;5049860;28;20877;-77
2023/12/21 06:02:28;;;;;;;5.80;5.70;;;6.60;1.00;;;;;;5050656;28;20491;-79
2023/12/21 06:04:56;;;;;;;5.90;5.80;;;6.60;1.00;;;;;;5039687;28;20490;-79
2023/12/21 06:07:24;;;;;;;5.73;5.63;;;6.60;1.00;;;;;;5047991;28;20826;-78
2023/12/21 06:09:55;;;;;;;6.10;5.70;;;6.60;1.00;;;;;;5046536;28;20461;-81
2023/12/21 06:12:23;;;;;;;5.47;5.37;;;6.70;1.00;;;;;;5046164;28;20475;-79
2023/12/21 06:14:51;;;;;;;5.70;5.60;;;6.70;1.00;;;;;;5044565;28;20854;-79
2023/12/21 06:17:19;;;;;;;5.60;5.50;;;6.60;1.00;;;;;;5047217;28;20463;-78
2023/12/21 06:19:48;;;;;;;5.60;5.50;;;6.60;99.90;;;;;;5051145;28;20451;-77
2023/12/21 06:22:16;;;;;;;5.80;5.70;;;6.60;99.90;;;;;;5051889;28;20467;-79
2023/12/21 06:24:44;;;;;;;5.33;5.23;;;6.60;20.70;;;;;;5053203;28;20525;-78
2023/12/21 06:27:14;;;;;;;5.40;5.30;;;6.60;2.40;;;;;;5050268;28;20439;-79
2023/12/21 06:29:43;;;;;;;5.40;5.30;;;6.70;99.90;;;;;;5051380;28;20456;-78
2023/12/21 06:32:12;;;;;;;5.30;5.20;;;6.70;99.90;;;;;;5052072;28;21501;-79
2023/12/21 06:34:40;;;;;;;5.40;5.30;;;6.70;99.90;;;;;;5045851;28;21008;-79
2023/12/21 06:37:08;;;;;;;5.67;5.57;;;6.70;99.90;;;;;;5040233;28;20451;-79
2023/12/21 06:39:36;;;;;;;6.17;6.07;;;6.60;99.90;;;;;;5048538;28;20886;-79
2023/12/21 06:42:05;;;;;;;6.03;5.93;;;6.60;99.90;;;;;;5052477;28;20474;-79
2023/12/21 06:44:35;;;;;;;5.73;5.63;;;6.50;88.40;;;;;;5047343;28;20475;-80
2023/12/21 06:47:04;;;;;;;6.00;5.90;;;6.60;99.90;;;;;;5050259;28;20464;-79
2023/12/21 06:49:32;;;;;;;6.20;6.10;;;6.60;11.60;;;;;;5056040;28;20547;-79
2023/12/21 06:52:00;;;;;;;5.80;5.70;;;6.50;64.50;;;;;;5052373;28;20461;-78
2023/12/21 06:54:28;;;;;;;5.97;5.87;;;6.60;99.90;;;;;;5054261;28;20958;-79
2023/12/21 06:56:56;;;;;;;6.23;6.03;;;6.60;1.00;;;;;;5051524;28;20456;-78
2023/12/21 06:59:25;;;;;;;6.23;6.03;;;6.70;99.90;;;;;;5051140;28;20509;-78
2023/12/21 07:01:54;;;;;;;6.50;6.20;;;6.60;1.00;;;;;;5058382;28;20459;-78
2023/12/21 07:04:22;;;;;;;6.07;5.93;;;6.60;23.20;;;;;;5055599;28;20564;-80
2023/12/21 07:06:51;;;;;;;5.90;5.80;;;6.60;1.00;;;;;;5056040;28;20455;-80
2023/12/21 07:09:19;;;;;;;5.80;5.70;;;6.70;99.90;;;;;;5056601;28;20551;-79
2023/12/21 07:11:48;;;;;;;5.70;5.60;;;6.70;1.00;;;;;;5051991;28;20976;-80
2023/12/21 07:14:16;;;;;;;5.43;5.33;;;6.70;1.00;;;;;;5053930;28;21053;-79
2023/12/21 07:16:44;;;;;;;5.87;5.77;;;6.80;98.60;;;;;;5053627;28;20472;-80
2023/12/21 07:19:14;;;;;;;5.50;5.40;;;6.80;26.20;;;;;;5046774;28;20447;-81
2023/12/21 07:21:44;;;;;;;5.90;5.80;;;6.70;61.60;;;;;;5046444;28;20490;-78
2023/12/21 07:24:12;;;;;;;5.80;5.70;;;6.80;99.90;;;;;;5055262;28;20476;-78
2023/12/21 07:26:40;;;;;;;6.10;6.00;;;6.70;99.90;;;;;;5056137;28;20475;-77
2023/12/21 07:29:08;;;;;;;6.20;6.10;;;6.60;99.90;;;;;;5051092;28;20977;-79
2023/12/21 07:31:36;;;;;;;6.70;6.60;;;6.70;1.00;;;;;;5057758;28;20455;-77
2023/12/21 07:34:06;;;;;;;6.40;6.30;;;6.80;1.00;;;;;;5053187;28;20471;-78
2023/12/21 07:36:35;;;;;;;6.20;6.10;;;6.70;99.90;;;;;;5053279;28;20471;-79
2023/12/21 07:39:04;;;;;;;6.30;6.20;;;6.70;99.90;;;;;;5052847;28;20452;-80
2023/12/21 07:41:33;;;;;;;6.10;6.00;;;6.70;1.00;;;;;;5049008;28;20757;-79
2023/12/21 07:44:20;;;;;;;6.00;5.90;;;6.70;1.00;;;;;;5054628;28;20489;-79
2023/12/21 07:46:53;;;;;;;7.90;7.40;;;6.70;1.00;;;;;;5051013;28;20969;-79
2023/12/21 07:49:21;;;;;;;6.07;5.97;;;6.70;1.00;;;;;;5043465;28;20996;-80
2023/12/21 07:51:50;;;;;;;6.00;5.90;;;6.80;1.00;;;;;;5053003;28;20452;-79
2023/12/21 07:54:19;;;;;;;6.67;6.47;;;6.80;99.90;;;;;;5047581;28;20460;-78
2023/12/21 07:56:48;;;;;;;6.57;6.47;;;6.90;1.00;;;;;;5051888;28;20988;-78
2023/12/21 07:59:17;;;;;;;6.60;6.50;;;6.90;99.90;;;;;;5054179;28;20462;-78
2023/12/21 08:01:46;;;;;;;6.80;6.70;;;6.90;1.00;;;;;;5052219;28;20842;-78
2023/12/21 08:04:16;;;;;;;7.37;7.07;;;6.80;1.00;;;;;;5051070;28;20480;-78
2023/12/21 08:06:44;;;;;;;6.90;6.80;;;6.90;1.00;;;;;;5053570;28;20985;-81
2023/12/21 08:09:15;;;;;;;7.20;7.00;;;6.90;1.00;;;;;;5048233;28;20992;-79
2023/12/21 08:11:43;;;;;;;7.27;7.07;;;6.90;1.00;;;;;;5056235;28;20539;-78
2023/12/21 08:14:12;;;;;;;6.70;6.60;;;6.80;1.00;;;;;;5051988;28;20477;-78
2023/12/21 08:16:40;;;;;;;6.40;6.30;;;6.90;1.00;;;;;;5054075;28;20458;-79
2023/12/21 08:19:11;;;;;;;6.47;6.30;;;6.90;1.00;;;;;;5052231;28;20506;-78
2023/12/21 08:21:39;;;;;;;6.60;6.50;;;6.90;1.00;;;;;;5054341;28;20466;-79
2023/12/21 08:24:09;;;;;;;7.13;7.03;;;6.90;1.00;;;;;;5049974;28;20565;-79
2023/12/21 08:26:39;;;;;;;7.43;7.33;;;6.90;1.00;;;;;;5049807;28;20451;-78
2023/12/21 08:29:07;;;;;;;7.77;7.67;;;7.00;1.00;;;;;;5054621;28;21279;-79
2023/12/21 08:31:36;;;;;;;7.50;7.40;;;6.90;1.00;;;;;;5053794;28;20451;-80
2023/12/21 08:34:04;;;;;;;7.20;7.10;;;6.90;1.00;;;;;;5053134;28;20988;-81
2023/12/21 08:36:32;;;;;;;6.97;6.87;;;7.00;1.00;;;;;;5055178;28;21009;-80
2023/12/21 08:39:01;;;;;;;8.37;8.13;;;7.00;1.00;;;;;;5050611;28;20444;-79
2023/12/21 08:41:29;;;;;;;7.20;7.10;;;7.00;1.00;;;;;;5054791;28;20516;-80
2023/12/21 08:43:59;;;;;;;7.40;7.30;;;7.00;1.00;;;;;;5053023;28;20501;-80
2023/12/21 08:46:27;;;;;;;6.90;6.80;;;7.00;1.00;;;;;;5050258;28;20493;-79
2023/12/21 08:48:55;;;;;;;7.07;6.97;;;6.90;1.00;;;;;;5050062;28;20470;-79
2023/12/21 08:51:24;;;;;;;7.00;6.90;;;7.00;1.00;;;;;;5052599;28;20965;-79
2023/12/21 08:53:52;;;;;;;7.00;6.90;;;6.90;1.00;;;;;;5052905;28;20495;-79
2023/12/21 08:56:20;;;;;;;7.20;7.10;;;7.00;1.00;;;;;;5053054;28;20889;-80
2023/12/21 08:58:48;;;;;;;7.10;7.00;;;7.00;1.00;;;;;;5056220;28;20924;-78
2023/12/21 09:01:19;;;;;;;7.43;7.23;;;7.10;1.00;;;;;;5050106;28;21054;-80
2023/12/21 09:03:47;;;;;;;6.70;6.60;;;7.10;1.00;;;;;;5052103;28;20493;-79
2023/12/21 09:06:15;;;;;;;7.20;7.10;;;7.20;99.90;;;;;;5048776;28;20448;-78
2023/12/21 09:08:43;;;;;;;7.50;7.40;;;7.20;99.90;;;;;;5053081;28;20446;-79
2023/12/21 09:11:13;;;;;;;7.50;7.40;;;7.20;99.90;;;;;;5051900;28;20972;-80
2023/12/21 09:13:41;;;;;;;7.50;7.40;;;7.20;99.90;;;;;;5054517;28;20542;-78
2023/12/21 09:16:09;;;;;;;7.10;7.00;;;7.20;99.90;;;;;;5048577;28;20469;-78
2023/12/21 09:18:39;;;;;;;7.40;7.30;;;7.20;99.90;;;;;;5056280;28;20918;-78
2023/12/21 09:21:07;;;;;;;7.40;7.30;;;7.20;99.90;;;;;;5050077;28;20454;-79
2023/12/21 09:23:35;;;;;;;7.40;7.30;;;7.20;99.90;;;;;;5046751;28;20485;-78
2023/12/21 09:26:04;;;;;;;7.30;7.20;;;7.20;99.90;;;;;;5035192;28;20545;-79
2023/12/21 09:28:32;;;;;;;7.40;7.30;;;7.30;99.90;;;;;;5051323;28;20448;-79
2023/12/21 09:31:00;;;;;;;7.40;7.30;;;7.30;99.90;;;;;;5049197;28;20459;-79
2023/12/21 09:33:33;;;;;;;7.10;7.00;;;7.30;99.90;;;;;;5052794;28;20467;-78
2023/12/21 09:36:03;;;;;;;7.70;7.50;;;7.30;99.90;;;;;;5051311;28;20541;-79
2023/12/21 09:38:31;;;;;;;7.30;7.20;;;7.30;99.90;;;;;;5046116;28;20455;-80
2023/12/21 09:41:00;;;;;;;7.50;7.40;;;7.30;99.90;;;;;;5055942;28;20456;-76
2023/12/21 09:43:29;;;;;;;7.70;7.60;;;7.30;99.90;;;;;;5049355;28;20562;-80
2023/12/21 09:45:57;;;;;;;7.87;7.77;;;7.30;99.90;;;;;;5050072;28;21016;-79
2023/12/21 09:48:27;;;;;;;7.80;7.50;;;7.40;99.90;;;;;;5052686;28;20473;-78
2023/12/21 09:50:57;;;;;;;8.20;8.00;;;7.40;99.90;;;;;;5051346;28;20493;-78
2023/12/21 09:53:28;;;;;;;7.60;7.50;;;7.40;99.90;;;;;;5054249;28;20478;-80
2023/12/21 09:55:57;;;;;;;7.30;7.20;;;7.50;99.90;;;;;;5055921;28;20562;-78
2023/12/21 09:58:25;;;;;;;7.50;7.40;;;7.40;99.90;;;;;;5052798;28;20501;-79
2023/12/21 10:00:54;;;;;;;7.50;7.40;;;7.40;99.90;;;;;;5040789;28;20458;-81
2023/12/21 10:03:22;;;;;;;7.73;7.63;;;7.40;99.90;;;;;;5053384;28;21044;-79
2023/12/21 10:05:50;;;;;;;7.60;7.50;;;7.50;99.90;;;;;;5056433;28;21077;-80
2023/12/21 10:08:20;;;;;;;8.30;8.10;;;7.40;99.90;;;;;;5057556;28;20471;-80
2023/12/21 10:10:49;;;;;;;10.50;10.10;;;7.50;99.90;;;;;;5047437;28;20448;-81
2023/12/21 10:13:18;;;;;;;8.10;8.00;;;7.50;99.90;;;;;;5056457;28;20686;-78
2023/12/21 10:15:46;;;;;;;8.00;7.90;;;7.50;1.00;;;;;;5054544;28;20533;-79
2023/12/21 10:18:15;;;;;;;8.13;8.03;;;7.40;66.50;;;;;;5052816;28;21157;-78
2023/12/21 10:20:43;;;;;;;8.23;8.13;;;7.50;99.90;;;;;;5053496;28;20484;-78
2023/12/21 10:23:13;;;;;;;7.57;7.47;;;7.50;99.90;;;;;;5054393;28;20451;-78
2023/12/21 10:25:45;;;;;;;7.80;7.70;;;7.60;99.90;;;;;;5054224;28;20553;-77
2023/12/21 10:28:15;;;;;;;7.93;7.83;;;7.50;99.90;;;;;;5053553;28;20447;-80
2023/12/21 10:30:44;;;;;;;8.00;7.80;;;7.40;99.90;;;;;;5053798;28;20458;-79
2023/12/21 10:33:12;;;;;;;8.00;7.90;;;7.50;99.90;;;;;;5052885;28;20573;-80
2023/12/21 10:35:40;;;;;;;8.20;8.10;;;7.50;99.90;;;;;;5055292;28;20451;-79
2023/12/21 10:38:10;;;;;;;8.30;8.10;;;7.60;99.90;;;;;;5056078;28;20587;-78
2023/12/21 10:40:38;;;;;;;8.30;8.10;;;7.60;1.00;;;;;;5051881;28;20524;-79
2023/12/21 10:43:08;;;;;;;8.80;8.70;;;7.60;99.90;;;;;;5054290;28;20462;-79
2023/12/21 10:45:37;;;;;;;8.17;8.03;;;7.60;1.00;;;;;;5055725;28;20460;-79
2023/12/21 10:48:08;;;;;;;8.00;7.90;;;7.60;1.00;;;;;;5054977;28;20448;-79
2023/12/21 10:50:38;;;;;;;8.40;8.20;;;7.60;1.00;;;;;;5053979;28;20522;-80
2023/12/21 10:53:10;;;;;;;8.17;8.07;;;7.60;99.90;;;;;;5064583;28;20460;-80
2023/12/21 10:55:39;;;;;;;8.20;8.10;;;7.70;1.00;;;;;;5055317;28;21511;-80
2023/12/21 10:58:08;;;;;;;8.20;8.10;;;7.60;99.90;;;;;;5054256;28;20442;-76
2023/12/21 11:00:38;;;;;;;8.60;8.50;;;7.60;1.00;;;;;;5053872;28;20440;-77
2023/12/21 11:03:09;;;;;;;8.40;8.30;;;7.60;1.00;;;;;;5054638;28;20877;-79
2023/12/21 11:05:39;;;;;;;8.40;8.30;;;7.60;1.00;;;;;;5053602;28;20475;-79
2023/12/21 11:08:08;;;;;;;7.90;7.80;;;7.60;1.00;;;;;;5055603;28;20456;-79
2023/12/21 11:10:37;;;;;;;7.70;7.60;;;7.50;1.00;;;;;;5056578;28;20455;-82
2023/12/21 11:13:06;;;;;;;8.50;8.30;;;7.70;1.00;;;;;;5043966;28;22238;-80
2023/12/21 11:15:35;;;;;;;8.00;7.90;;;7.60;1.00;;;;;;5054071;28;20554;-81
2023/12/21 11:18:09;;;;;;;7.90;7.80;;;7.60;99.90;;;;;;5054698;28;20471;-80
2023/12/21 11:20:43;;;;;;;8.60;8.40;;;7.70;1.00;;;;;;5052827;28;20463;-80
2023/12/21 11:23:17;;;;;;;7.80;7.70;;;7.70;99.90;;;;;;5054144;28;20482;-79
2023/12/21 11:25:55;;;;;;;8.10;8.00;;;7.70;99.90;;;;;;5052470;28;20471;-79
2023/12/21 11:28:28;;;;;;;8.10;8.00;;;7.80;1.00;;;;;;5056457;28;20448;-81
2023/12/21 11:30:57;;;;;;;8.00;7.90;;;7.70;99.90;;;;;;5054474;28;20494;-79
2023/12/21 11:33:31;;;;;;;8.00;7.90;;;7.70;99.90;;;;;;5057919;28;20472;-79
2023/12/21 11:36:02;;;;;;;8.70;8.50;;;7.70;99.90;;;;;;5055759;28;20533;-80
2023/12/21 11:38:47;;;;;;;8.37;8.27;;;7.80;1.00;;;;;;5058461;28;20494;-80
2023/12/21 11:41:23;;;;;;;8.60;8.43;;;7.70;99.90;;;;;;5054363;28;20452;-79
2023/12/21 11:44:04;;;;;;;8.60;8.50;;;7.80;99.90;;;;;;5047533;28;20467;-80
2023/12/21 11:46:33;;;;;;;9.03;8.90;;;7.70;99.90;;;;;;5040307;28;20475;-81
2023/12/21 11:49:04;;;;;;;9.10;8.97;;;7.80;99.90;;;;;;5037981;28;20460;-79
2023/12/21 11:51:33;;;;;;;8.87;8.77;;;7.80;99.90;;;;;;5039580;28;20458;-80
2023/12/21 11:54:05;;;;;;;8.90;8.80;;;7.80;99.90;;;;;;5041876;28;20479;-79
2023/12/21 11:56:39;;;;;;;9.60;9.40;;;7.80;99.90;;;;;;5042647;28;20507;-80
2023/12/21 11:59:10;;;;;;;8.90;8.80;;;7.80;99.90;;;;;;5047073;28;20516;-83
2023/12/21 12:01:39;;;;;;;8.73;8.60;;;7.90;99.90;;;;;;5043985;28;20453;-79
2023/12/21 12:04:12;;;;;;;8.60;8.50;;;7.90;99.90;;;;;;5050335;28;21462;-82
2023/12/21 12:06:42;;;;;;;9.03;8.77;;;7.80;99.90;;;;;;5049388;28;21036;-80
2023/12/21 12:09:10;;;;;;;8.80;8.70;;;7.90;99.90;;;;;;5050182;28;21240;-80
2023/12/21 12:11:38;;;;;;;8.83;8.73;;;7.90;99.90;;;;;;5051549;28;20543;-80
2023/12/21 12:14:09;;;;;;;9.00;8.80;;;7.90;99.90;;;;;;5045034;28;20522;-80
2023/12/21 12:16:38;;;;;;;8.97;8.80;;;7.90;99.90;;;;;;5048770;28;20665;-79
2023/12/21 12:19:10;;;;;;;8.90;8.80;;;8.00;99.90;;;;;;5040361;28;20445;-81
2023/12/21 12:21:40;;;;;;;9.00;8.90;;;7.90;99.90;;;;;;5041868;28;20450;-80
2023/12/21 12:24:09;;;;;;;8.83;8.73;;;8.00;99.90;;;;;;5052755;28;20468;-80
2023/12/21 12:26:37;;;;;;;9.20;9.00;;;8.00;99.90;;;;;;5037096;28;20498;-82
2023/12/21 12:29:06;;;;;;;9.10;8.90;;;8.00;99.90;;;;;;5048979;28;21253;-79
2023/12/21 12:31:34;;;;;;;9.03;8.93;;;8.00;99.90;;;;;;5050100;28;20451;-79
2023/12/21 12:34:02;;;;;;;9.93;9.73;;;8.00;95.80;;;;;;5050530;28;20479;-82
2023/12/21 12:36:31;;;;;;;8.90;8.80;;;8.10;58.80;;;;;;5037046;28;20546;-82
2023/12/21 12:39:00;;;;;;;9.00;8.87;;;8.10;77.40;;;;;;5043685;28;20447;-78
2023/12/21 12:41:29;;;;;;;8.60;8.50;;;8.10;1.00;;;;;;5053473;28;20435;-80
2023/12/21 12:43:58;;;;;;;8.93;8.83;;;8.10;99.90;;;;;;5046383;28;20559;-81
2023/12/21 12:46:28;;;;;;;9.00;8.90;;;8.10;68.40;;;;;;5051153;28;20474;-80
2023/12/21 12:48:56;;;;;;;8.80;8.70;;;8.10;21.50;;;;;;5044166;28;20503;-79
2023/12/21 12:51:25;;;;;;;8.67;8.57;;;8.10;99.90;;;;;;5039693;28;21002;-80
2023/12/21 12:53:53;;;;;;;8.90;8.80;;;8.10;99.90;;;;;;5049161;28;20534;-79
2023/12/21 12:56:23;;;;;;;8.60;8.50;;;8.10;99.90;;;;;;5044629;28;21461;-79
2023/12/21 12:58:51;;;;;;;8.70;8.60;;;8.20;99.90;;;;;;5039253;28;20480;-80
2023/12/21 13:01:27;;;;;;;11.60;10.80;;;8.10;99.90;;;;;;5043893;28;20458;-79
2023/12/21 13:03:57;;;;;;;8.90;8.70;;;8.10;99.90;;;;;;5051388;28;20491;-78
2023/12/21 13:06:26;;;;;;;8.80;8.60;;;8.10;99.90;;;;;;5048067;28;20509;-79
2023/12/21 13:08:54;;;;;;;8.90;8.70;;;8.20;1.00;;;;;;5052924;28;20563;-80
2023/12/21 13:11:24;;;;;;;8.90;8.80;;;8.20;42.70;;;;;;5054031;28;21038;-80